Time;durP1;ratioP1;P1;durP2;ratioP2;P2;SDS_P1;SDS_P2;PMS_P1;PMS_P2;Temp;Humidity;BMP_temperature;BMP_pressure;BME280_temperature;BME280_humidity;BME280_pressure;Samples;Min_cycle;Max_cycle;Signal;HPM_P1;HPM_P2
2021/06/25 00:00:42;;;;;;;;;4.67;4.33;;;;;26.16;56.04;98301.38;4865603;28;102899;-79
2021/06/25 00:03:09;;;;;;;;;5.00;5.00;;;;;26.20;56.04;98269.16;4809602;28;102018;-81
2021/06/25 00:05:37;;;;;;;;;4.33;4.00;;;;;26.22;55.92;98285.47;4840101;28;101925;-80
2021/06/25 00:08:08;;;;;;;;;3.33;3.33;;;;;26.22;56.04;98325.09;4836207;28;103026;-76
2021/06/25 00:10:41;;;;;;;;;4.33;3.67;;;;;26.12;55.36;98328.06;4860925;28;101445;-79
2021/06/25 00:13:20;;;;;;;;;4.00;4.00;;;;;26.12;55.80;98314.19;4898036;28;102783;-80
2021/06/25 00:15:57;;;;;;;;;5.00;5.00;;;;;26.13;56.00;98290.91;4877967;28;101804;-79
2021/06/25 00:18:30;;;;;;;;;3.67;3.67;;;;;26.12;55.80;98279.00;4879376;28;101809;-81
2021/06/25 00:21:10;;;;;;;;;2.67;2.67;;;;;26.20;55.69;98346.75;4875344;28;102086;-80
2021/06/25 00:23:43;;;;;;;;;4.00;4.00;;;;;26.18;55.67;98290.78;4859542;28;103228;-80
2021/06/25 00:26:21;;;;;;;;;3.00;3.00;;;;;26.12;55.56;98262.34;4882911;28;102013;-80
2021/06/25 00:29:06;;;;;;;;;4.67;4.00;;;;;26.20;55.56;98263.59;4792005;29;106393;-81
2021/06/25 00:31:51;;;;;;;;;4.00;4.00;;;;;26.11;55.43;98244.13;4784255;28;101915;-83
2021/06/25 00:34:41;;;;;;;;;5.33;4.33;;;;;26.14;55.50;98278.69;4856332;28;101418;-79
2021/06/25 00:37:28;;;;;;;;;4.67;4.00;;;;;26.05;55.57;98286.09;4796770;28;103260;-80
2021/06/25 00:40:18;;;;;;;;;5.00;4.67;;;;;26.03;55.70;98291.09;4801423;28;106296;-81
2021/06/25 00:43:05;;;;;;;;;4.00;4.00;;;;;26.00;55.44;98311.13;4864231;28;101894;-81
2021/06/25 00:45:46;;;;;;;;;3.33;3.33;;;;;26.00;55.67;98305.59;4779470;28;101424;-80
2021/06/25 00:48:27;;;;;;;;;4.00;4.00;;;;;26.04;55.25;98301.88;4855595;28;102518;-80
2021/06/25 00:51:08;;;;;;;;;3.33;3.00;;;;;26.09;55.20;98301.78;4849995;28;105055;-80
2021/06/25 00:53:49;;;;;;;;;6.00;3.67;;;;;26.01;55.20;98326.63;4845252;28;101439;-80
2021/06/25 00:56:31;;;;;;;;;3.67;3.33;;;;;25.97;55.15;98354.16;4830143;28;101768;-80
2021/06/25 00:59:12;;;;;;;;;3.00;3.00;;;;;26.00;55.15;98388.72;4752210;28;101456;-81
2021/06/25 01:01:53;;;;;;;;;5.00;4.00;;;;;25.95;54.91;98341.72;4830699;28;103587;-81
2021/06/25 01:04:35;;;;;;;;;4.00;4.00;;;;;25.99;55.07;98346.31;4864278;28;101668;-82
2021/06/25 01:07:04;;;;;;;;;4.00;4.00;;;;;26.04;54.94;98403.59;4843055;28;102941;-79
2021/06/25 01:09:32;;;;;;;;;5.67;5.00;;;;;25.92;54.72;98356.19;4858565;28;101323;-78
2021/06/25 01:12:09;;;;;;;;;4.33;3.33;;;;;26.01;54.70;98237.97;4820810;28;105648;-80
2021/06/25 01:14:42;;;;;;;;;3.00;3.00;;;;;26.00;54.82;98264.84;4803821;28;102025;-79
2021/06/25 01:17:35;;;;;;;;;3.67;3.33;;;;;25.94;54.75;98310.41;4877424;28;102510;-81
2021/06/25 01:20:12;;;;;;;;;4.00;3.00;;;;;25.88;54.63;98305.28;4845655;28;101480;-76
2021/06/25 01:22:52;;;;;;;;;4.67;4.33;;;;;25.88;54.67;98266.50;4857319;28;102051;-80
2021/06/25 01:25:38;;;;;;;;;3.33;3.33;;;;;25.94;54.58;98304.84;4846807;28;103693;-80
2021/06/25 01:28:20;;;;;;;;;2.67;2.67;;;;;25.93;54.45;98333.72;4832898;28;101984;-80
2021/06/25 01:30:58;;;;;;;;;5.00;4.33;;;;;25.90;54.38;98316.88;4865811;28;103304;-80
2021/06/25 01:33:38;;;;;;;;;4.33;3.00;;;;;25.79;54.47;98324.56;4842469;28;103900;-80
2021/06/25 01:36:34;;;;;;;;;4.67;4.00;;;;;25.82;54.55;98357.19;4793302;28;102579;-79
2021/06/25 01:39:21;;;;;;;;;3.67;3.00;;;;;25.82;54.36;98381.31;4803994;28;102089;-80
2021/06/25 01:42:08;;;;;;;;;3.33;3.33;;;;;25.83;54.50;98435.59;4868012;28;102280;-80
2021/06/25 01:45:00;;;;;;;;;2.00;2.00;;;;;25.77;54.11;98443.16;4773631;28;108184;-79
2021/06/25 01:47:43;;;;;;;;;5.00;4.33;;;;;25.85;54.05;98425.03;4823554;28;102072;-80
2021/06/25 01:50:25;;;;;;;;;3.00;3.00;;;;;25.82;53.90;98395.97;4796044;28;101729;-79
2021/06/25 01:52:59;;;;;;;;;2.33;2.33;;;;;25.84;53.87;98384.59;4859886;28;101956;-81
2021/06/25 01:55:28;;;;;;;;;4.67;3.33;;;;;25.76;53.90;98353.69;4859511;29;104222;-81
2021/06/25 01:58:20;;;;;;;;;3.00;3.00;;;;;25.74;53.84;98338.53;4808631;28;103393;-81
2021/06/25 02:01:04;;;;;;;;;5.00;4.00;;;;;25.76;54.04;98377.78;4836177;28;101977;-80
2021/06/25 02:03:31;;;;;;;;;3.00;3.00;;;;;25.81;53.94;98388.78;4832443;29;101834;-79
2021/06/25 02:06:13;;;;;;;;;3.33;3.00;;;;;25.85;53.88;98380.72;4797283;28;108204;-79
2021/06/25 02:08:54;;;;;;;;;3.00;3.00;;;;;25.73;53.56;98372.88;4848587;28;101186;-81
2021/06/25 02:11:35;;;;;;;;;3.00;2.67;;;;;25.70;53.89;98371.56;4858812;28;101403;-79
2021/06/25 02:14:18;;;;;;;;;2.33;2.33;;;;;25.80;53.71;98380.81;4789138;28;102143;-78
2021/06/25 02:16:58;;;;;;;;;3.00;3.00;;;;;25.74;53.62;98361.50;4835213;28;103619;-79
2021/06/25 02:19:39;;;;;;;;;4.00;4.00;;;;;25.64;53.73;98333.16;4828107;28;101816;-79
2021/06/25 02:22:07;;;;;;;;;3.33;3.33;;;;;25.71;53.82;98326.09;4864923;28;101378;-83
2021/06/25 02:24:48;;;;;;;;;5.00;3.00;;;;;25.71;53.50;98298.38;4813071;28;102791;-85
2021/06/25 02:30:16;;;;;;;;;3.67;3.67;;;;;25.62;53.52;98285.59;5451014;23;103071;-85
2021/06/25 02:38:25;;;;;;;;;3.00;3.00;;;;;25.70;53.26;98299.53;5354836;23;103506;-86
2021/06/25 02:41:06;;;;;;;;;4.33;4.00;;;;;25.70;53.33;98290.41;4920053;23;101729;-86
2021/06/25 02:46:43;;;;;;;;;3.00;2.00;;;;;25.68;52.98;98274.09;5243673;23;103079;-87
2021/06/25 02:49:18;;;;;;;;;2.00;2.00;;;;;25.70;53.13;98291.22;4942341;23;101804;-87
2021/06/25 02:52:07;;;;;;;;;3.00;3.00;;;;;25.75;53.02;98296.69;5342662;23;103306;-86
2021/06/25 02:54:48;;;;;;;;;3.00;3.00;;;;;25.65;53.07;98271.13;5172393;23;103125;-78
2021/06/25 02:57:33;;;;;;;;;2.33;2.33;;;;;25.73;52.76;98290.59;4852521;29;109395;-77
2021/06/25 03:00:04;;;;;;;;;3.00;3.00;;;;;25.65;52.60;98285.78;4839208;28;102962;-79
2021/06/25 03:02:32;;;;;;;;;3.33;3.33;;;;;25.68;52.78;98276.84;4853337;29;101429;-78
2021/06/25 03:04:59;;;;;;;;;3.00;3.00;;;;;25.67;52.72;98277.16;4854029;29;101377;-80
2021/06/25 03:07:27;;;;;;;;;2.00;2.00;;;;;25.67;52.44;98266.06;4861021;28;101433;-81
2021/06/25 03:10:08;;;;;;;;;1.67;1.67;;;;;25.69;52.51;98261.88;4810929;29;108979;-80
2021/06/25 03:12:49;;;;;;;;;3.00;3.00;;;;;25.64;52.56;98245.38;4735451;29;101686;-81
2021/06/25 03:15:30;;;;;;;;;3.33;3.33;;;;;25.65;52.41;98244.25;4824062;29;102076;-79
2021/06/25 03:17:58;;;;;;;;;3.00;3.00;;;;;25.67;52.28;98258.59;4809257;29;101995;-79
2021/06/25 03:20:45;;;;;;;;;3.00;2.00;;;;;25.64;52.39;98258.41;4795636;28;105823;-82
2021/06/25 03:23:29;;;;;;;;;1.67;1.67;;;;;25.68;52.44;98263.00;4762484;29;102086;-80
2021/06/25 03:26:10;;;;;;;;;3.00;3.00;;;;;25.64;52.14;98253.69;4813564;29;102890;-80
2021/06/25 03:28:51;;;;;;;;;3.00;3.00;;;;;25.55;52.29;98247.22;4723146;29;102330;-79
2021/06/25 03:31:21;;;;;;;;;2.00;2.00;;;;;25.55;52.13;98252.75;4830707;28;102204;-79
2021/06/25 03:33:48;;;;;;;;;1.67;1.67;;;;;25.60;52.04;98262.91;4822111;29;102678;-78
2021/06/25 03:36:16;;;;;;;;;3.33;3.00;;;;;25.57;52.11;98258.81;4837783;29;102227;-80
2021/06/25 03:38:44;;;;;;;;;4.00;3.33;;;;;25.59;52.18;98264.84;4803319;28;102688;-79
2021/06/25 03:41:11;;;;;;;;;3.33;3.00;;;;;25.49;52.02;98247.56;4829327;29;102889;-78
2021/06/25 03:43:39;;;;;;;;;2.33;2.00;;;;;25.52;51.98;98250.56;4834802;28;102003;-80
2021/06/25 03:46:07;;;;;;;;;2.67;2.67;;;;;25.50;51.90;98258.34;4809686;29;103118;-80
2021/06/25 03:48:34;;;;;;;;;3.33;3.33;;;;;25.60;51.81;98290.59;4833070;29;102058;-78
2021/06/25 03:51:02;;;;;;;;;2.00;2.00;;;;;25.59;51.92;98288.94;4834533;28;104645;-79
2021/06/25 03:53:29;;;;;;;;;2.33;2.33;;;;;25.52;52.01;98275.50;4831798;29;101941;-80
2021/06/25 03:56:12;;;;;;;;;3.33;3.33;;;;;25.57;51.93;98282.91;4803582;29;101778;-79
2021/06/25 03:58:47;;;;;;;;;4.00;3.33;;;;;25.50;51.71;98268.59;4833004;29;103064;-79
2021/06/25 04:01:28;;;;;;;;;2.67;2.00;;;;;25.44;51.97;98276.19;4742669;29;108017;-81
2021/06/25 04:04:09;;;;;;;;;2.33;2.33;;;;;25.45;51.53;98266.75;4789059;29;102061;-79
2021/06/25 04:06:50;;;;;;;;;4.00;3.67;;;;;25.49;51.77;98283.56;4742484;29;104153;-80
2021/06/25 04:09:31;;;;;;;;;3.33;2.33;;;;;25.52;51.63;98296.81;4814192;29;104359;-79
2021/06/25 04:12:12;;;;;;;;;4.00;3.67;;;;;25.47;51.64;98286.66;4788986;29;108157;-81
2021/06/25 04:14:54;;;;;;;;;3.00;3.00;;;;;25.43;51.51;98287.56;4817380;29;101234;-80
2021/06/25 04:17:35;;;;;;;;;4.33;2.67;;;;;25.45;51.57;98296.38;4801571;29;101227;-80
2021/06/25 04:20:17;;;;;;;;;3.00;3.00;;;;;25.44;51.64;98298.31;4774000;29;102327;-78
2021/06/25 04:22:58;;;;;;;;;2.67;2.67;;;;;25.48;51.58;98296.63;4771755;29;106250;-79
2021/06/25 04:25:39;;;;;;;;;3.33;2.67;;;;;25.42;51.58;98288.69;4796436;29;101426;-80
2021/06/25 04:28:21;;;;;;;;;3.00;3.00;;;;;25.40;51.44;98289.00;4774824;29;102411;-80
2021/06/25 04:30:49;;;;;;;;;3.00;2.00;;;;;25.38;51.44;98279.34;4790343;29;103139;-80
2021/06/25 04:33:30;;;;;;;;;4.00;3.33;;;;;25.42;51.48;98292.28;4787308;29;104467;-80
2021/06/25 04:35:57;;;;;;;;;4.33;2.67;;;;;25.37;51.46;98289.59;4823831;29;102109;-80
2021/06/25 04:38:39;;;;;;;;;3.33;3.33;;;;;25.36;51.52;98273.28;4806576;29;108756;-79
2021/06/25 04:41:20;;;;;;;;;2.33;2.00;;;;;25.38;51.49;98273.81;4814844;29;102129;-79
2021/06/25 04:44:01;;;;;;;;;3.33;3.00;;;;;25.37;51.32;98283.25;4812346;29;103793;-79
2021/06/25 04:46:42;;;;;;;;;3.00;3.00;;;;;25.30;51.53;98272.59;4801670;29;101285;-80
2021/06/25 04:49:23;;;;;;;;;3.00;3.00;;;;;25.33;51.19;98271.97;4744778;29;101976;-80
2021/06/25 04:52:05;;;;;;;;;2.00;2.00;;;;;25.31;51.39;98275.03;4765397;29;102965;-79
2021/06/25 04:57:50;;;;;;;;;2.00;2.00;;;;;25.39;51.53;98286.53;5027679;23;102694;-86
2021/06/25 05:00:31;;;;;;;;;4.00;3.00;;;;;25.29;51.06;98257.94;5509115;23;103289;-86
2021/06/25 05:08:48;;;;;;;;;3.00;3.00;;;;;25.26;51.64;98277.09;5611894;23;103008;-82
2021/06/25 05:11:30;;;;;;;;;3.00;3.00;;;;;25.27;51.83;98281.47;5752097;23;103120;31
2021/06/25 05:14:11;;;;;;;;;2.00;2.00;;;;;25.22;51.83;98257.47;5499539;23;102838;-83
2021/06/25 05:19:41;;;;;;;;;2.67;2.67;;;;;25.27;51.76;98290.59;5509851;23;103840;-85
2021/06/25 05:28:38;;;;;;;;;3.00;2.50;;;;;25.30;51.67;98289.19;5927660;23;108925;31
2021/06/25 05:31:05;;;;;;;;;3.67;2.33;;;;;25.29;51.74;98287.53;5522426;23;103038;-86
2021/06/25 05:33:46;;;;;;;;;3.00;2.00;;;;;25.27;51.85;98284.25;5634570;23;103001;-85
2021/06/25 05:36:27;;;;;;;;;3.00;3.00;;;;;25.32;51.80;98284.16;5530846;23;103143;-84
2021/06/25 05:42:37;;;;;;;;;3.00;3.00;;;;;25.33;52.02;98289.41;5317268;23;102918;31
2021/06/25 05:51:07;;;;;;;;;4.33;3.33;;;;;25.17;52.50;98276.16;5102986;23;101991;-84
2021/06/25 05:56:37;;;;;;;;;5.00;3.33;;;;;25.22;52.42;98276.03;4878933;23;101873;-80
2021/06/25 05:59:05;;;;;;;;;4.00;3.33;;;;;25.26;52.41;98288.16;4857927;28;101646;-79
2021/06/25 06:01:46;;;;;;;;;2.67;2.67;;;;;25.28;52.27;98291.44;4856872;28;104300;-76
2021/06/25 06:04:17;;;;;;;;;3.33;3.33;;;;;25.26;52.36;98282.63;4888093;28;102572;-79
2021/06/25 06:06:44;;;;;;;;;3.33;2.67;;;;;25.33;52.25;98296.88;4856156;28;101952;-78
2021/06/25 06:09:12;;;;;;;;;3.00;2.00;;;;;25.33;52.29;98296.88;4846114;28;101944;-78
2021/06/25 06:11:39;;;;;;;;;3.00;3.00;;;;;25.28;52.25;98294.19;4864309;28;102216;-79
2021/06/25 06:14:07;;;;;;;;;3.00;3.00;;;;;25.26;52.36;98293.69;4850212;28;103287;-78
2021/06/25 06:16:34;;;;;;;;;4.00;3.33;;;;;25.31;52.54;98304.66;4829557;28;102417;-79
2021/06/25 06:19:03;;;;;;;;;3.33;2.67;;;;;25.19;52.71;98288.53;4870450;28;106402;-78
2021/06/25 06:31:10;;;;;;;;;4.67;3.67;;;;;25.30;52.55;98298.31;4866685;28;104920;-78
2021/06/25 06:36:43;;;;;;;;;3.67;3.00;;;;;25.32;52.89;98315.44;4805797;28;103596;-78
2021/06/25 06:39:24;;;;;;;;;4.33;4.00;;;;;25.27;53.08;98306.38;4815333;28;101825;-78
2021/06/25 06:42:05;;;;;;;;;3.00;3.00;;;;;25.26;52.81;98311.09;4857424;28;101784;-79
2021/06/25 06:44:46;;;;;;;;;2.67;2.33;;;;;25.37;52.78;98328.38;4849873;28;107914;-76
2021/06/25 06:47:13;;;;;;;;;4.00;3.33;;;;;25.36;52.90;98312.88;4859483;28;101944;-78
2021/06/25 06:49:41;;;;;;;;;4.33;4.00;;;;;25.37;53.02;98327.53;4851189;28;104660;-78
2021/06/25 06:52:08;;;;;;;;;4.00;3.67;;;;;25.42;52.87;98325.50;4867671;28;104200;-78
2021/06/25 06:54:36;;;;;;;;;2.33;2.33;;;;;25.37;52.85;98311.75;4794723;28;1527273;-78
2021/06/25 06:57:04;;;;;;;;;3.00;3.00;;;;;25.48;52.73;98317.94;4848912;28;101943;-80
2021/06/25 06:59:31;;;;;;;;;2.00;2.00;;;;;25.42;52.64;98299.75;4840317;28;104484;-78
2021/06/25 07:01:58;;;;;;;;;3.67;3.67;;;;;25.42;52.84;98303.34;4848367;28;101811;-78
2021/06/25 07:04:36;;;;;;;;;4.33;4.33;;;;;25.52;52.76;98314.25;4848687;28;102439;-79
2021/06/25 07:07:04;;;;;;;;;4.00;4.00;;;;;25.52;52.81;98311.47;4850809;28;101742;-77
2021/06/25 07:09:31;;;;;;;;;3.33;3.00;;;;;25.53;52.77;98299.25;4859640;28;102497;-78
2021/06/25 07:12:02;;;;;;;;;5.00;5.00;;;;;25.47;52.98;98294.97;4846384;28;102008;-80
2021/06/25 07:14:30;;;;;;;;;2.00;2.00;;;;;25.51;52.98;98301.53;4859208;28;103244;-78
2021/06/25 07:16:58;;;;;;;;;4.67;4.00;;;;;25.47;52.88;98300.50;4870582;28;103222;-78
2021/06/25 07:19:26;;;;;;;;;4.00;3.67;;;;;25.49;53.06;98302.94;4851791;28;101853;-79
2021/06/25 07:21:53;;;;;;;;;4.33;4.00;;;;;25.53;53.09;98302.03;4872503;28;101886;-78
2021/06/25 07:24:20;;;;;;;;;3.33;3.33;;;;;25.57;52.89;98311.44;4858744;28;102380;-78
2021/06/25 07:26:48;;;;;;;;;4.67;4.33;;;;;25.51;53.05;98297.94;4867657;28;101871;-79
2021/06/25 07:29:29;;;;;;;;;4.00;3.33;;;;;25.55;53.01;98291.50;4844732;28;101363;-79
2021/06/25 07:31:56;;;;;;;;;3.00;2.67;;;;;25.62;53.30;98302.19;4839099;28;102118;-78
2021/06/25 07:34:24;;;;;;;;;4.67;3.67;;;;;25.58;53.12;98301.97;4864794;28;103319;-79
2021/06/25 07:37:05;;;;;;;;;5.33;4.00;;;;;25.59;53.29;98303.63;4832057;28;101219;-78
2021/06/25 07:39:46;;;;;;;;;5.00;4.00;;;;;25.61;53.70;98304.16;4860208;28;102201;-79
2021/06/25 07:42:14;;;;;;;;;4.00;3.33;;;;;25.67;53.67;98316.75;4854661;28;102128;-79
2021/06/25 07:44:41;;;;;;;;;7.00;4.33;;;;;25.69;54.09;98314.50;4852648;28;101837;-79
2021/06/25 07:47:09;;;;;;;;;3.67;3.67;;;;;25.62;54.63;98310.50;4846881;28;102534;-79
2021/06/25 07:49:36;;;;;;;;;5.00;5.00;;;;;25.65;55.03;98310.72;4843857;28;101792;-78
2021/06/25 07:52:04;;;;;;;;;6.00;5.00;;;;;25.58;55.24;98299.19;4851456;28;101674;-78
2021/06/25 07:54:32;;;;;;;;;4.67;3.67;;;;;25.62;55.52;98316.06;4854922;28;102084;-78
2021/06/25 07:56:59;;;;;;;;;4.67;4.00;;;;;25.62;55.67;98316.06;4838681;28;103798;-78
2021/06/25 07:59:26;;;;;;;;;4.00;4.00;;;;;25.65;56.21;98327.31;4859967;28;101915;-79
2021/06/25 08:01:53;;;;;;;;;3.67;3.67;;;;;25.55;56.43;98319.22;4851772;28;101592;-78
2021/06/25 08:04:21;;;;;;;;;4.00;3.33;;;;;25.62;56.59;98327.91;4842656;28;102042;-79
2021/06/25 08:06:48;;;;;;;;;4.67;3.33;;;;;25.68;56.62;98343.31;4846634;28;102994;-77
2021/06/25 08:09:16;;;;;;;;;3.33;3.33;;;;;25.61;57.01;98329.06;4857470;28;102452;-79
2021/06/25 08:11:46;;;;;;;;;5.33;4.33;;;;;25.62;57.12;98324.34;4846310;28;101964;-78
2021/06/25 08:14:27;;;;;;;;;4.00;4.00;;;;;25.66;56.85;98331.75;4753306;28;108234;-78
2021/06/25 08:17:08;;;;;;;;;4.00;4.00;;;;;25.68;57.28;98334.19;4853351;28;103413;-77
2021/06/25 08:19:50;;;;;;;;;6.00;4.33;;;;;25.64;57.35;98325.69;4816756;28;102624;-80
2021/06/25 08:22:18;;;;;;;;;4.00;3.67;;;;;25.65;57.37;98320.97;4823955;28;101574;-78
2021/06/25 08:24:59;;;;;;;;;5.00;4.33;;;;;25.65;57.78;98307.13;4798531;28;108088;-79
2021/06/25 08:27:27;;;;;;;;;5.33;4.67;;;;;25.73;57.70;98311.94;4865393;28;101832;-78
2021/06/25 08:30:09;;;;;;;;;5.00;4.33;;;;;25.68;57.74;98301.78;4853590;28;102375;-77
2021/06/25 08:32:50;;;;;;;;;5.33;4.33;;;;;25.71;57.46;98305.91;4855782;28;103327;-78
2021/06/25 08:35:30;;;;;;;;;4.00;4.00;;;;;25.72;58.16;98307.53;4844397;28;104664;-78
2021/06/25 08:37:58;;;;;;;;;5.00;4.67;;;;;25.74;58.41;98303.34;4841760;28;101869;-80
2021/06/25 08:40:25;;;;;;;;;4.33;4.00;;;;;25.75;58.78;98313.28;4861497;28;101552;-77
2021/06/25 08:42:53;;;;;;;;;8.00;5.00;;;;;25.76;58.54;98309.38;4855659;28;101871;-77
2021/06/25 08:45:23;;;;;;;;;5.00;4.67;;;;;25.77;59.00;98311.03;4838226;28;103917;-77
2021/06/25 08:47:51;;;;;;;;;5.00;5.00;;;;;25.75;59.14;98316.06;4842065;28;103942;-78
2021/06/25 08:50:23;;;;;;;;;6.00;6.00;;;;;25.77;59.18;98316.56;4858329;28;102257;-79
2021/06/25 08:52:53;;;;;;;;;8.00;5.33;;;;;25.76;59.19;98328.75;4848617;28;101500;-75
2021/06/25 08:55:21;;;;;;;;;6.00;5.00;;;;;25.72;59.36;98319.44;4846098;28;103711;-78
2021/06/25 08:57:49;;;;;;;;;5.67;5.00;;;;;25.70;59.64;98318.94;4848661;28;103054;-74
2021/06/25 09:00:17;;;;;;;;;4.67;4.67;;;;;25.81;59.47;98338.09;4839433;28;103101;-78
2021/06/25 09:02:58;;;;;;;;;4.00;4.00;;;;;25.80;59.89;98331.78;4815485;28;101386;-79
2021/06/25 09:05:38;;;;;;;;;9.00;7.00;;;;;25.72;59.96;98324.97;4849985;28;104140;-79
2021/06/25 09:08:27;;;;;;;;;8.33;6.33;;;;;25.71;59.90;98334.41;4819559;28;103171;-80
2021/06/25 09:11:22;;;;;;;;;6.00;5.33;;;;;25.76;60.09;98339.84;4775371;28;103136;-77
2021/06/25 09:14:04;;;;;;;;;6.33;5.00;;;;;25.79;59.96;98345.91;4783096;28;102236;-78
2021/06/25 09:16:45;;;;;;;;;5.33;5.33;;;;;25.76;60.20;98337.06;4832516;28;108237;-79
2021/06/25 09:19:16;;;;;;;;;7.00;7.00;;;;;25.76;60.19;98339.00;4824501;28;101796;-77
2021/06/25 09:21:59;;;;;;;;;6.67;6.67;;;;;25.79;60.42;98352.28;4842667;28;104566;-78
2021/06/25 09:24:27;;;;;;;;;6.00;5.33;;;;;25.79;60.37;98352.28;4791386;28;101319;-77
2021/06/25 09:27:16;;;;;;;;;6.00;6.00;;;;;25.81;60.47;98360.25;4827352;28;103249;-75
2021/06/25 09:29:49;;;;;;;;;5.00;5.00;;;;;25.80;60.40;98353.94;4758042;28;102197;-81
2021/06/25 09:32:17;;;;;;;;;6.00;6.00;;;;;25.78;60.59;98347.84;4839663;28;101566;-77
2021/06/25 09:34:50;;;;;;;;;5.33;5.00;;;;;25.76;60.46;98359.22;4849601;28;101559;-79
2021/06/25 09:37:19;;;;;;;;;7.00;6.00;;;;;25.73;60.52;98353.50;4868030;28;108885;-77
2021/06/25 09:40:01;;;;;;;;;8.33;6.33;;;;;25.79;60.64;98359.75;4832565;28;101958;-79
2021/06/25 09:42:29;;;;;;;;;6.33;6.00;;;;;25.80;60.67;98361.41;4767205;28;101332;-78
2021/06/25 09:45:05;;;;;;;;;7.00;6.00;;;;;25.81;60.71;98360.25;4831402;28;101869;-77
2021/06/25 09:47:40;;;;;;;;;4.67;4.67;;;;;25.80;60.74;98372.50;4824608;28;103059;-81
2021/06/25 09:50:21;;;;;;;;;7.67;7.00;;;;;25.80;60.73;98375.25;4788526;28;101983;-78
2021/06/25 09:53:03;;;;;;;;;5.33;5.00;;;;;25.73;60.86;98365.38;4788459;29;101333;-80
2021/06/25 09:55:54;;;;;;;;;7.33;6.00;;;;;25.75;61.07;98378.94;4768706;28;102618;-79
2021/06/25 09:58:40;;;;;;;;;6.33;6.33;;;;;25.69;60.80;98369.91;4816968;29;106765;-75
2021/06/25 10:01:26;;;;;;;;;8.00;6.00;;;;;25.75;61.10;98382.53;4782164;28;102399;-78
2021/06/25 10:04:08;;;;;;;;;9.00;6.00;;;;;25.75;60.99;98379.78;4743208;28;101871;-78
2021/06/25 10:06:50;;;;;;;;;5.00;4.67;;;;;25.76;60.92;98380.56;4805380;28;101345;-78
2021/06/25 10:09:31;;;;;;;;;7.33;7.33;;;;;25.77;61.07;98383.03;4674715;29;108230;-78
2021/06/25 10:12:01;;;;;;;;;6.67;6.00;;;;;25.74;61.42;98382.84;4716820;29;107057;-78
2021/06/25 10:14:31;;;;;;;;;6.00;6.00;;;;;25.69;61.08;98382.94;4772274;28;102024;-76
2021/06/25 10:17:16;;;;;;;;;5.00;5.00;;;;;25.79;61.23;98402.13;4723431;28;101962;-80
2021/06/25 10:20:06;;;;;;;;;6.00;6.00;;;;;25.75;61.02;98399.16;4770927;28;109808;-76
2021/06/25 10:22:48;;;;;;;;;5.33;5.00;;;;;25.73;61.22;98395.03;4819685;28;102232;-78
2021/06/25 10:25:21;;;;;;;;;5.00;4.67;;;;;25.70;61.56;98393.72;4836058;28;106360;-78
2021/06/25 10:27:54;;;;;;;;;5.00;4.67;;;;;25.70;61.64;98392.88;4636257;29;103111;-77
2021/06/25 10:30:37;;;;;;;;;6.67;6.00;;;;;25.75;61.42;98406.66;4713502;28;103011;-79
2021/06/25 10:33:37;;;;;;;;;6.00;6.00;;;;;25.75;61.28;98407.47;4718641;28;102222;-79
2021/06/25 10:36:08;;;;;;;;;7.00;6.00;;;;;25.71;61.45;98405.63;4751266;28;104777;-78
2021/06/25 10:38:44;;;;;;;;;5.33;4.67;;;;;25.74;61.37;98414.13;4803969;28;102297;-78
2021/06/25 10:41:13;;;;;;;;;5.33;5.33;;;;;25.65;61.41;98391.03;4774658;28;102560;-79
2021/06/25 10:43:45;;;;;;;;;6.00;5.33;;;;;25.65;61.42;98406.81;4865285;28;102191;-79
2021/06/25 10:46:33;;;;;;;;;5.00;4.67;;;;;25.74;61.41;98422.44;4800078;28;102285;-76
2021/06/25 10:49:14;;;;;;;;;6.00;5.00;;;;;25.69;61.24;98414.22;4802542;28;101403;-79
2021/06/25 10:51:45;;;;;;;;;6.00;6.00;;;;;25.74;61.23;98429.94;4824371;28;103024;-79
2021/06/25 10:54:25;;;;;;;;;4.67;4.33;;;;;25.70;61.39;98418.63;4784046;28;101737;-78
2021/06/25 10:57:06;;;;;;;;;5.67;5.67;;;;;25.70;61.23;98421.41;4729467;28;102476;-78
2021/06/25 10:59:43;;;;;;;;;5.67;5.67;;;;;25.75;61.14;98435.16;4737055;28;103067;-78
2021/06/25 11:02:12;;;;;;;;;6.33;5.33;;;;;25.76;61.41;98431.25;4788594;28;103000;-79
2021/06/25 11:04:42;;;;;;;;;6.00;6.00;;;;;25.72;61.15;98424.69;4814827;28;102050;-80
2021/06/25 11:07:11;;;;;;;;;8.00;5.00;;;;;25.72;61.24;98418.31;4779248;28;101846;-78
2021/06/25 11:09:59;;;;;;;;;5.33;4.33;;;;;25.71;61.29;98428.56;4813177;28;101760;-79
2021/06/25 11:12:29;;;;;;;;;5.33;5.33;;;;;25.70;61.39;98426.94;4727062;28;107099;-79
2021/06/25 11:15:04;;;;;;;;;4.67;4.67;;;;;25.77;61.39;98441.22;4856364;28;101905;-78
2021/06/25 11:17:50;;;;;;;;;6.67;6.00;;;;;25.76;61.18;98447.88;4825017;28;101684;-81
2021/06/25 11:20:29;;;;;;;;;6.00;6.00;;;;;25.71;60.69;98433.31;4802078;28;102954;-78
2021/06/25 11:23:22;;;;;;;;;6.33;5.33;;;;;25.80;61.16;98447.28;4823214;28;107753;-77
2021/06/25 11:26:21;;;;;;;;;9.33;7.67;;;;;25.69;60.97;98436.38;4854577;28;101996;-78
2021/06/25 11:28:55;;;;;;;;;7.67;6.67;;;;;25.68;60.78;98439.44;4751944;28;101998;-78
2021/06/25 11:31:36;;;;;;;;;11.00;7.00;;;;;25.68;61.25;98440.25;4782422;28;102847;-77
2021/06/25 11:34:05;;;;;;;;;5.67;5.67;;;;;25.74;61.35;98452.09;4763454;28;103073;-81
2021/06/25 11:36:52;;;;;;;;;9.67;8.00;;;;;25.73;61.15;98451.25;4834088;28;108773;-79
2021/06/25 11:39:34;;;;;;;;;8.67;6.33;;;;;25.76;61.29;98447.88;4765921;28;101644;-76
2021/06/25 11:42:12;;;;;;;;;8.33;8.33;;;;;25.79;61.44;98448.41;4871924;28;101411;-79
2021/06/25 11:44:44;;;;;;;;;7.33;6.67;;;;;25.72;61.31;98441.28;4869335;28;102886;-78
2021/06/25 11:47:18;;;;;;;;;8.00;7.67;;;;;25.80;61.31;98447.28;4798268;28;101786;-79
2021/06/25 11:50:05;;;;;;;;;7.33;6.00;;;;;25.71;61.42;98436.88;4722417;28;101859;-79
2021/06/25 11:52:50;;;;;;;;;8.00;8.00;;;;;25.69;61.23;98453.00;4769476;28;101471;-79
2021/06/25 11:55:55;;;;;;;;;8.00;7.00;;;;;25.75;61.23;98448.19;4770216;28;109129;-79
2021/06/25 11:58:40;;;;;;;;;6.00;6.00;;;;;25.71;61.31;98449.94;4699736;28;102129;-80
2021/06/25 12:01:55;;;;;;;;;7.00;6.33;;;;;25.74;61.65;98461.22;4722135;28;101977;-77
2021/06/25 12:05:03;;;;;;;;;9.33;9.33;;;;;25.75;61.18;98457.34;4781424;28;102220;-79
2021/06/25 12:08:40;;;;;;;;;6.00;6.00;;;;;25.80;61.60;98464.72;4628493;28;103986;-78
2021/06/25 12:11:53;;;;;;;;;8.33;6.00;;;;;25.78;62.48;98466.97;4680957;28;102480;-78
2021/06/25 12:15:01;;;;;;;;;5.33;5.33;;;;;25.81;62.49;98474.66;4665669;28;101360;-79
2021/06/25 12:17:49;;;;;;;;;6.67;6.67;;;;;25.80;62.44;98480.53;4690261;28;102433;-81
2021/06/25 12:21:04;;;;;;;;;6.00;6.00;;;;;25.80;62.55;98472.22;4678795;28;102090;-79
2021/06/25 12:26:59;;;;;;;;;7.00;6.67;;;;;25.70;62.27;98449.09;2595147;23;103057;-80
2021/06/25 12:29:31;;;;;;;;;9.00;9.00;;;;;25.73;62.27;98459.56;4733340;28;102699;-80
2021/06/25 12:31:59;;;;;;;;;6.33;6.00;;;;;25.77;62.28;98463.38;4697135;28;104295;-80
2021/06/25 12:34:31;;;;;;;;;5.67;5.67;;;;;25.73;62.42;98454.03;4668575;29;103047;-82
2021/06/25 12:37:02;;;;;;;;;7.00;6.00;;;;;25.66;62.32;98437.00;4703678;29;102656;-81
2021/06/25 12:39:33;;;;;;;;;6.33;6.00;;;;;25.76;62.70;98453.41;4730833;28;102361;-80
2021/06/25 12:42:05;;;;;;;;;8.67;8.67;;;;;25.72;62.51;98441.28;4658157;28;103971;-81
2021/06/25 12:44:48;;;;;;;;;7.00;6.67;;;;;25.76;62.31;98442.34;4712956;28;102307;-80
2021/06/25 12:47:22;;;;;;;;;7.33;7.00;;;;;25.80;62.50;98447.28;4666906;28;102698;-80
2021/06/25 12:49:54;;;;;;;;;6.33;6.00;;;;;25.67;62.46;98427.53;4712430;28;102734;-80
2021/06/25 12:52:24;;;;;;;;;8.67;8.00;;;;;25.73;62.75;98448.50;4749693;28;107094;-80
2021/06/25 12:54:52;;;;;;;;;7.67;7.00;;;;;25.81;62.53;98469.13;4859712;28;102354;-79
2021/06/25 12:57:19;;;;;;;;;8.67;8.33;;;;;25.70;62.22;98446.34;4850956;28;102252;-79
2021/06/25 12:59:52;;;;;;;;;8.00;7.00;;;;;25.77;62.59;98460.59;4855810;28;102432;-79
2021/06/25 13:02:20;;;;;;;;;5.33;5.33;;;;;25.74;62.44;98464.00;4831723;28;103422;-80
2021/06/25 13:04:47;;;;;;;;;9.33;9.33;;;;;25.68;62.88;98451.34;4814446;28;104547;-80
2021/06/25 13:07:21;;;;;;;;;8.50;8.00;;;;;25.79;62.25;98453.94;4751436;28;102593;-80